sensor_id;sensor_type;location;lat;lon;timestamp;temperature;humidity
1686;DHT22;840;47.980;7.830;2022-09-24T00:01:33;16.00;99.90
1686;DHT22;840;47.980;7.830;2022-09-24T00:04:02;16.00;99.90
1686;DHT22;840;47.980;7.830;2022-09-24T00:06:33;16.00;99.90
1686;DHT22;840;47.980;7.830;2022-09-24T00:09:00;16.00;99.90
1686;DHT22;840;47.980;7.830;2022-09-24T00:11:29;16.00;99.90
1686;DHT22;840;47.980;7.830;2022-09-24T00:13:56;16.00;99.90
1686;DHT22;840;47.980;7.830;2022-09-24T00:16:25;16.00;99.90
1686;DHT22;840;47.980;7.830;2022-09-24T00:18:54;16.00;99.90
1686;DHT22;840;47.980;7.830;2022-09-24T00:21:22;16.00;99.90
1686;DHT22;840;47.980;7.830;2022-09-24T00:23:51;16.00;99.90
1686;DHT22;840;47.980;7.830;2022-09-24T00:26:19;16.00;99.90
1686;DHT22;840;47.980;7.830;2022-09-24T00:29:05;16.00;99.90
1686;DHT22;840;47.980;7.830;2022-09-24T00:31:32;16.00;99.90
1686;DHT22;840;47.980;7.830;2022-09-24T00:33:59;16.00;99.90
1686;DHT22;840;47.980;7.830;2022-09-24T00:36:26;16.00;99.90
1686;DHT22;840;47.980;7.830;2022-09-24T00:38:58;16.00;99.90
1686;DHT22;840;47.980;7.830;2022-09-24T00:41:27;15.90;99.90
1686;DHT22;840;47.980;7.830;2022-09-24T00:43:55;15.90;99.90
1686;DHT22;840;47.980;7.830;2022-09-24T00:46:26;15.90;99.90
1686;DHT22;840;47.980;7.830;2022-09-24T00:48:57;15.90;99.90
1686;DHT22;840;47.980;7.830;2022-09-24T00:51:28;15.90;99.90
1686;DHT22;840;47.980;7.830;2022-09-24T00:53:58;15.90;99.90
1686;DHT22;840;47.980;7.830;2022-09-24T00:56:26;15.90;99.90
1686;DHT22;840;47.980;7.830;2022-09-24T00:58:55;15.80;99.90
1686;DHT22;840;47.980;7.830;2022-09-24T01:01:24;15.80;99.90
1686;DHT22;840;47.980;7.830;2022-09-24T01:03:52;15.80;99.90
1686;DHT22;840;47.980;7.830;2022-09-24T01:06:20;15.80;99.90
1686;DHT22;840;47.980;7.830;2022-09-24T01:08:47;15.80;99.90
1686;DHT22;840;47.980;7.830;2022-09-24T01:11:29;15.80;99.90
1686;DHT22;840;47.980;7.830;2022-09-24T01:14:24;15.80;99.90
1686;DHT22;840;47.980;7.830;2022-09-24T01:17:03;15.80;99.90
1686;DHT22;840;47.980;7.830;2022-09-24T01:19:53;15.70;99.90
1686;DHT22;840;47.980;7.830;2022-09-24T01:22:35;15.70;99.90
1686;DHT22;840;47.980;7.830;2022-09-24T01:25:14;15.70;99.90
1686;DHT22;840;47.980;7.830;2022-09-24T01:27:53;15.70;99.90
1686;DHT22;840;47.980;7.830;2022-09-24T01:30:28;15.70;99.90
1686;DHT22;840;47.980;7.830;2022-09-24T01:33:00;15.70;99.90
1686;DHT22;840;47.980;7.830;2022-09-24T01:35:30;15.70;99.90
1686;DHT22;840;47.980;7.830;2022-09-24T01:38:02;15.60;99.90
1686;DHT22;840;47.980;7.830;2022-09-24T01:40:30;15.70;99.90
1686;DHT22;840;47.980;7.830;2022-09-24T01:42:59;15.70;99.90
1686;DHT22;840;47.980;7.830;2022-09-24T01:45:30;15.70;99.90
1686;DHT22;840;47.980;7.830;2022-09-24T01:47:58;15.70;99.90
1686;DHT22;840;47.980;7.830;2022-09-24T01:50:28;15.70;99.90
1686;DHT22;840;47.980;7.830;2022-09-24T01:53:00;15.70;99.90
1686;DHT22;840;47.980;7.830;2022-09-24T01:55:32;15.70;99.90
1686;DHT22;840;47.980;7.830;2022-09-24T01:58:05;15.70;99.90
1686;DHT22;840;47.980;7.830;2022-09-24T02:00:37;15.70;99.90
1686;DHT22;840;47.980;7.830;2022-09-24T02:03:08;15.60;99.90
1686;DHT22;840;47.980;7.830;2022-09-24T02:05:39;15.60;99.90
1686;DHT22;840;47.980;7.830;2022-09-24T02:08:08;15.50;99.90
1686;DHT22;840;47.980;7.830;2022-09-24T02:10:42;15.50;99.90
1686;DHT22;840;47.980;7.830;2022-09-24T02:13:12;15.50;99.90
1686;DHT22;840;47.980;7.830;2022-09-24T02:15:44;15.50;99.90
1686;DHT22;840;47.980;7.830;2022-09-24T02:18:13;15.50;99.90
1686;DHT22;840;47.980;7.830;2022-09-24T02:20:42;15.50;99.90
1686;DHT22;840;47.980;7.830;2022-09-24T02:23:10;15.50;99.90
1686;DHT22;840;47.980;7.830;2022-09-24T02:25:42;15.50;99.90
1686;DHT22;840;47.980;7.830;2022-09-24T02:28:13;15.50;99.90
1686;DHT22;840;47.980;7.830;2022-09-24T02:30:45;15.60;99.90
1686;DHT22;840;47.980;7.830;2022-09-24T02:33:14;15.60;99.90
1686;DHT22;840;47.980;7.830;2022-09-24T02:36:01;15.70;99.90
1686;DHT22;840;47.980;7.830;2022-09-24T02:38:28;15.70;99.90
1686;DHT22;840;47.980;7.830;2022-09-24T02:40:55;15.70;99.90
1686;DHT22;840;47.980;7.830;2022-09-24T02:43:22;15.70;99.90
1686;DHT22;840;47.980;7.830;2022-09-24T02:45:51;15.60;99.90
1686;DHT22;840;47.980;7.830;2022-09-24T02:48:18;15.70;99.90
1686;DHT22;840;47.980;7.830;2022-09-24T02:50:45;15.70;99.90
1686;DHT22;840;47.980;7.830;2022-09-24T02:53:12;15.70;99.90
1686;DHT22;840;47.980;7.830;2022-09-24T02:55:39;15.70;99.90
1686;DHT22;840;47.980;7.830;2022-09-24T02:58:06;15.70;99.90
1686;DHT22;840;47.980;7.830;2022-09-24T03:00:33;15.60;99.90
1686;DHT22;840;47.980;7.830;2022-09-24T03:03:01;15.60;99.90
1686;DHT22;840;47.980;7.830;2022-09-24T03:05:27;15.60;99.90
1686;DHT22;840;47.980;7.830;2022-09-24T03:07:54;15.50;99.90
1686;DHT22;840;47.980;7.830;2022-09-24T03:10:23;15.50;99.90
1686;DHT22;840;47.980;7.830;2022-09-24T03:12:50;15.50;99.90
1686;DHT22;840;47.980;7.830;2022-09-24T03:15:17;15.50;99.90
1686;DHT22;840;47.980;7.830;2022-09-24T03:17:44;15.50;99.90
1686;DHT22;840;47.980;7.830;2022-09-24T03:20:12;15.50;99.90
1686;DHT22;840;47.980;7.830;2022-09-24T03:22:38;15.50;99.90
1686;DHT22;840;47.980;7.830;2022-09-24T03:25:06;15.50;99.90
1686;DHT22;840;47.980;7.830;2022-09-24T03:27:33;15.50;99.90
1686;DHT22;840;47.980;7.830;2022-09-24T03:30:00;15.50;99.90
1686;DHT22;840;47.980;7.830;2022-09-24T03:32:44;15.50;99.90
1686;DHT22;840;47.980;7.830;2022-09-24T03:35:14;15.50;99.90
1686;DHT22;840;47.980;7.830;2022-09-24T03:37:41;15.50;99.90
1686;DHT22;840;47.980;7.830;2022-09-24T03:40:08;15.50;99.90
1686;DHT22;840;47.980;7.830;2022-09-24T03:42:35;15.50;99.90
1686;DHT22;840;47.980;7.830;2022-09-24T03:45:02;15.50;99.90
1686;DHT22;840;47.980;7.830;2022-09-24T03:47:29;15.50;99.90
1686;DHT22;840;47.980;7.830;2022-09-24T03:49:56;15.50;99.90
1686;DHT22;840;47.980;7.830;2022-09-24T03:52:25;15.50;99.90
1686;DHT22;840;47.980;7.830;2022-09-24T03:54:52;15.40;99.90
1686;DHT22;840;47.980;7.830;2022-09-24T03:57:18;15.40;99.90
1686;DHT22;840;47.980;7.830;2022-09-24T03:59:45;15.40;99.90
1686;DHT22;840;47.980;7.830;2022-09-24T04:02:12;15.40;99.90
1686;DHT22;840;47.980;7.830;2022-09-24T04:04:39;15.40;99.90
1686;DHT22;840;47.980;7.830;2022-09-24T04:07:06;15.40;99.90
1686;DHT22;840;47.980;7.830;2022-09-24T04:09:34;15.30;99.90
1686;DHT22;840;47.980;7.830;2022-09-24T04:12:01;15.30;99.90
1686;DHT22;840;47.980;7.830;2022-09-24T04:14:28;15.30;99.90
1686;DHT22;840;47.980;7.830;2022-09-24T04:16:54;15.20;99.90
1686;DHT22;840;47.980;7.830;2022-09-24T04:19:21;15.20;99.90
1686;DHT22;840;47.980;7.830;2022-09-24T04:21:49;15.20;99.90
1686;DHT22;840;47.980;7.830;2022-09-24T04:24:15;15.20;99.90
1686;DHT22;840;47.980;7.830;2022-09-24T04:26:43;15.20;99.90
1686;DHT22;840;47.980;7.830;2022-09-24T04:29:10;15.20;99.90
1686;DHT22;840;47.980;7.830;2022-09-24T04:31:37;15.20;99.90
1686;DHT22;840;47.980;7.830;2022-09-24T04:34:05;15.20;99.90
1686;DHT22;840;47.980;7.830;2022-09-24T04:36:32;15.20;99.90
1686;DHT22;840;47.980;7.830;2022-09-24T04:38:59;15.20;99.90
1686;DHT22;840;47.980;7.830;2022-09-24T04:41:27;15.20;99.90
1686;DHT22;840;47.980;7.830;2022-09-24T04:43:57;15.10;99.90
1686;DHT22;840;47.980;7.830;2022-09-24T04:46:23;15.10;99.90
1686;DHT22;840;47.980;7.830;2022-09-24T04:48:50;15.10;99.90
1686;DHT22;840;47.980;7.830;2022-09-24T04:51:17;15.10;99.90
1686;DHT22;840;47.980;7.830;2022-09-24T04:53:45;15.10;99.90
1686;DHT22;840;47.980;7.830;2022-09-24T04:56:15;15.10;99.90
1686;DHT22;840;47.980;7.830;2022-09-24T04:58:42;15.10;99.90
1686;DHT22;840;47.980;7.830;2022-09-24T05:01:10;15.10;99.90
1686;DHT22;840;47.980;7.830;2022-09-24T05:03:37;15.10;99.90
1686;DHT22;840;47.980;7.830;2022-09-24T05:06:04;15.10;99.90
1686;DHT22;840;47.980;7.830;2022-09-24T05:08:31;15.10;99.90
1686;DHT22;840;47.980;7.830;2022-09-24T05:10:58;15.10;99.90
1686;DHT22;840;47.980;7.830;2022-09-24T05:13:26;15.20;99.90
1686;DHT22;840;47.980;7.830;2022-09-24T05:15:53;15.20;99.90
1686;DHT22;840;47.980;7.830;2022-09-24T05:18:21;15.20;99.90
1686;DHT22;840;47.980;7.830;2022-09-24T05:20:48;15.20;99.90
1686;DHT22;840;47.980;7.830;2022-09-24T05:23:15;15.20;99.90
1686;DHT22;840;47.980;7.830;2022-09-24T05:25:42;15.20;99.90
1686;DHT22;840;47.980;7.830;2022-09-24T05:28:23;15.20;99.90
1686;DHT22;840;47.980;7.830;2022-09-24T05:30:49;15.20;99.90
1686;DHT22;840;47.980;7.830;2022-09-24T05:33:16;15.20;99.90
1686;DHT22;840;47.980;7.830;2022-09-24T05:35:44;15.20;99.90
1686;DHT22;840;47.980;7.830;2022-09-24T05:38:18;15.20;99.90
1686;DHT22;840;47.980;7.830;2022-09-24T05:40:45;15.20;99.90
1686;DHT22;840;47.980;7.830;2022-09-24T05:43:16;15.20;99.90
1686;DHT22;840;47.980;7.830;2022-09-24T05:45:43;15.20;99.90
1686;DHT22;840;47.980;7.830;2022-09-24T05:48:10;15.20;99.90
1686;DHT22;840;47.980;7.830;2022-09-24T05:50:37;15.20;99.90
1686;DHT22;840;47.980;7.830;2022-09-24T05:53:05;15.20;99.90
1686;DHT22;840;47.980;7.830;2022-09-24T05:55:32;15.20;99.90
1686;DHT22;840;47.980;7.830;2022-09-24T05:58:03;15.20;99.90
1686;DHT22;840;47.980;7.830;2022-09-24T06:00:31;15.30;99.90
1686;DHT22;840;47.980;7.830;2022-09-24T06:03:02;15.30;99.90
1686;DHT22;840;47.980;7.830;2022-09-24T06:05:29;15.30;99.90
1686;DHT22;840;47.980;7.830;2022-09-24T06:07:58;15.30;99.90
1686;DHT22;840;47.980;7.830;2022-09-24T06:10:26;15.30;99.90
1686;DHT22;840;47.980;7.830;2022-09-24T06:12:53;15.30;99.90
1686;DHT22;840;47.980;7.830;2022-09-24T06:15:21;15.40;99.90
1686;DHT22;840;47.980;7.830;2022-09-24T06:17:51;15.30;99.90
1686;DHT22;840;47.980;7.830;2022-09-24T06:20:18;15.30;99.90
1686;DHT22;840;47.980;7.830;2022-09-24T06:22:45;15.40;99.90
1686;DHT22;840;47.980;7.830;2022-09-24T06:25:12;15.40;99.90
1686;DHT22;840;47.980;7.830;2022-09-24T06:27:40;15.40;99.90
1686;DHT22;840;47.980;7.830;2022-09-24T06:30:08;15.40;99.90
1686;DHT22;840;47.980;7.830;2022-09-24T06:32:36;15.40;99.90
1686;DHT22;840;47.980;7.830;2022-09-24T06:35:03;15.40;99.90
1686;DHT22;840;47.980;7.830;2022-09-24T06:37:30;15.40;99.90
1686;DHT22;840;47.980;7.830;2022-09-24T06:39:58;15.40;99.90
1686;DHT22;840;47.980;7.830;2022-09-24T06:42:25;15.50;99.90
1686;DHT22;840;47.980;7.830;2022-09-24T06:45:00;15.50;99.90
1686;DHT22;840;47.980;7.830;2022-09-24T06:47:29;15.50;99.90
1686;DHT22;840;47.980;7.830;2022-09-24T06:49:55;15.60;99.90
1686;DHT22;840;47.980;7.830;2022-09-24T06:52:22;15.60;99.90
1686;DHT22;840;47.980;7.830;2022-09-24T06:54:49;15.70;99.90
1686;DHT22;840;47.980;7.830;2022-09-24T06:57:20;15.70;99.90
1686;DHT22;840;47.980;7.830;2022-09-24T06:59:46;15.70;99.90
1686;DHT22;840;47.980;7.830;2022-09-24T07:02:17;15.70;99.90
1686;DHT22;840;47.980;7.830;2022-09-24T07:04:43;15.80;99.90
1686;DHT22;840;47.980;7.830;2022-09-24T07:07:10;15.80;99.90
1686;DHT22;840;47.980;7.830;2022-09-24T07:09:57;15.80;99.90
1686;DHT22;840;47.980;7.830;2022-09-24T07:12:24;15.90;99.90
1686;DHT22;840;47.980;7.830;2022-09-24T07:14:51;15.90;99.90
1686;DHT22;840;47.980;7.830;2022-09-24T07:17:19;15.90;99.90
1686;DHT22;840;47.980;7.830;2022-09-24T07:19:46;15.90;99.90
1686;DHT22;840;47.980;7.830;2022-09-24T07:22:12;16.00;99.90
1686;DHT22;840;47.980;7.830;2022-09-24T07:24:39;16.00;99.90
1686;DHT22;840;47.980;7.830;2022-09-24T07:27:06;16.10;99.90
1686;DHT22;840;47.980;7.830;2022-09-24T07:29:33;16.10;99.90
1686;DHT22;840;47.980;7.830;2022-09-24T07:32:01;16.20;99.90
1686;DHT22;840;47.980;7.830;2022-09-24T07:34:30;16.30;99.90
1686;DHT22;840;47.980;7.830;2022-09-24T07:36:57;16.30;99.90
1686;DHT22;840;47.980;7.830;2022-09-24T07:39:25;16.40;99.90
1686;DHT22;840;47.980;7.830;2022-09-24T07:41:52;16.50;99.90
1686;DHT22;840;47.980;7.830;2022-09-24T07:44:20;16.60;99.90
1686;DHT22;840;47.980;7.830;2022-09-24T07:46:47;16.60;99.90
1686;DHT22;840;47.980;7.830;2022-09-24T07:49:14;16.70;99.90
1686;DHT22;840;47.980;7.830;2022-09-24T07:51:42;16.80;99.90
1686;DHT22;840;47.980;7.830;2022-09-24T07:54:10;16.90;99.90
1686;DHT22;840;47.980;7.830;2022-09-24T07:56:37;16.90;99.90
1686;DHT22;840;47.980;7.830;2022-09-24T07:59:04;17.00;99.90
1686;DHT22;840;47.980;7.830;2022-09-24T08:01:32;17.00;99.90
1686;DHT22;840;47.980;7.830;2022-09-24T08:03:59;17.00;99.90
1686;DHT22;840;47.980;7.830;2022-09-24T08:06:26;17.00;99.90
1686;DHT22;840;47.980;7.830;2022-09-24T08:08:54;17.00;99.90
1686;DHT22;840;47.980;7.830;2022-09-24T08:11:21;17.00;99.90
1686;DHT22;840;47.980;7.830;2022-09-24T08:13:48;17.10;99.90
1686;DHT22;840;47.980;7.830;2022-09-24T08:16:16;17.20;99.90
1686;DHT22;840;47.980;7.830;2022-09-24T08:18:45;17.20;99.90
1686;DHT22;840;47.980;7.830;2022-09-24T08:21:15;17.20;99.90
1686;DHT22;840;47.980;7.830;2022-09-24T08:23:42;17.20;99.90
1686;DHT22;840;47.980;7.830;2022-09-24T08:26:11;17.20;99.90
1686;DHT22;840;47.980;7.830;2022-09-24T08:28:38;17.20;99.90
1686;DHT22;840;47.980;7.830;2022-09-24T08:31:07;17.10;99.90
1686;DHT22;840;47.980;7.830;2022-09-24T08:33:36;17.10;99.90
1686;DHT22;840;47.980;7.830;2022-09-24T08:36:05;17.20;99.90
1686;DHT22;840;47.980;7.830;2022-09-24T08:38:32;17.20;99.90
1686;DHT22;840;47.980;7.830;2022-09-24T08:41:07;17.30;99.90
1686;DHT22;840;47.980;7.830;2022-09-24T08:43:47;17.30;99.90
1686;DHT22;840;47.980;7.830;2022-09-24T08:46:19;17.40;99.90
1686;DHT22;840;47.980;7.830;2022-09-24T08:49:10;17.40;99.90
1686;DHT22;840;47.980;7.830;2022-09-24T08:51:51;17.40;99.90
1686;DHT22;840;47.980;7.830;2022-09-24T08:54:19;17.40;99.90
1686;DHT22;840;47.980;7.830;2022-09-24T08:56:48;17.40;99.90
1686;DHT22;840;47.980;7.830;2022-09-24T08:59:25;17.40;99.90
1686;DHT22;840;47.980;7.830;2022-09-24T09:02:02;17.50;99.90
1686;DHT22;840;47.980;7.830;2022-09-24T09:04:44;17.50;99.90
1686;DHT22;840;47.980;7.830;2022-09-24T09:07:21;17.60;99.90
1686;DHT22;840;47.980;7.830;2022-09-24T09:09:53;17.70;99.90
1686;DHT22;840;47.980;7.830;2022-09-24T09:12:25;17.80;99.90
1686;DHT22;840;47.980;7.830;2022-09-24T09:14:59;17.90;99.90
1686;DHT22;840;47.980;7.830;2022-09-24T09:17:40;17.90;99.90
1686;DHT22;840;47.980;7.830;2022-09-24T09:20:13;18.00;99.90
1686;DHT22;840;47.980;7.830;2022-09-24T09:22:44;18.00;99.90
1686;DHT22;840;47.980;7.830;2022-09-24T09:25:19;17.90;99.90
1686;DHT22;840;47.980;7.830;2022-09-24T09:27:49;17.90;99.90
1686;DHT22;840;47.980;7.830;2022-09-24T09:30:19;17.90;99.90
1686;DHT22;840;47.980;7.830;2022-09-24T09:33:03;18.00;99.90
1686;DHT22;840;47.980;7.830;2022-09-24T09:35:38;17.90;99.90
1686;DHT22;840;47.980;7.830;2022-09-24T09:38:17;17.90;99.90
1686;DHT22;840;47.980;7.830;2022-09-24T09:40:52;17.90;99.90
1686;DHT22;840;47.980;7.830;2022-09-24T09:43:19;17.90;99.90
1686;DHT22;840;47.980;7.830;2022-09-24T09:45:56;18.00;99.90
1686;DHT22;840;47.980;7.830;2022-09-24T09:48:28;18.00;99.90
1686;DHT22;840;47.980;7.830;2022-09-24T09:50:59;18.10;99.90
1686;DHT22;840;47.980;7.830;2022-09-24T09:53:29;18.20;99.90
1686;DHT22;840;47.980;7.830;2022-09-24T09:55:58;18.30;99.90
1686;DHT22;840;47.980;7.830;2022-09-24T09:58:26;18.50;99.90
1686;DHT22;840;47.980;7.830;2022-09-24T10:01:05;18.60;99.90
1686;DHT22;840;47.980;7.830;2022-09-24T10:03:34;18.70;99.90
1686;DHT22;840;47.980;7.830;2022-09-24T10:06:21;18.70;99.90
1686;DHT22;840;47.980;7.830;2022-09-24T10:08:48;18.60;99.90
1686;DHT22;840;47.980;7.830;2022-09-24T10:11:16;18.60;99.90
1686;DHT22;840;47.980;7.830;2022-09-24T10:13:43;18.50;99.90
1686;DHT22;840;47.980;7.830;2022-09-24T10:16:13;18.50;99.90
1686;DHT22;840;47.980;7.830;2022-09-24T10:18:43;18.40;99.90
1686;DHT22;840;47.980;7.830;2022-09-24T10:21:25;18.50;99.90
1686;DHT22;840;47.980;7.830;2022-09-24T10:23:58;18.70;99.90
1686;DHT22;840;47.980;7.830;2022-09-24T10:26:34;18.80;99.90
1686;DHT22;840;47.980;7.830;2022-09-24T10:29:01;18.90;99.90
1686;DHT22;840;47.980;7.830;2022-09-24T10:31:47;18.90;99.90
1686;DHT22;840;47.980;7.830;2022-09-24T10:34:21;19.00;99.90
1686;DHT22;840;47.980;7.830;2022-09-24T10:36:52;19.00;99.90
1686;DHT22;840;47.980;7.830;2022-09-24T10:39:20;19.00;99.90
1686;DHT22;840;47.980;7.830;2022-09-24T10:41:48;19.00;99.90
1686;DHT22;840;47.980;7.830;2022-09-24T10:44:16;19.00;99.90
1686;DHT22;840;47.980;7.830;2022-09-24T10:46:58;19.00;99.90
1686;DHT22;840;47.980;7.830;2022-09-24T10:49:42;19.10;99.90
1686;DHT22;840;47.980;7.830;2022-09-24T10:52:24;19.10;99.90
1686;DHT22;840;47.980;7.830;2022-09-24T10:54:59;19.10;99.90
1686;DHT22;840;47.980;7.830;2022-09-24T10:57:33;19.10;99.90
1686;DHT22;840;47.980;7.830;2022-09-24T11:00:08;19.20;99.90
1686;DHT22;840;47.980;7.830;2022-09-24T11:03:06;19.30;99.90
1686;DHT22;840;47.980;7.830;2022-09-24T11:05:38;19.40;99.90
1686;DHT22;840;47.980;7.830;2022-09-24T11:08:15;19.40;99.90
1686;DHT22;840;47.980;7.830;2022-09-24T11:11:07;19.50;99.90
1686;DHT22;840;47.980;7.830;2022-09-24T11:13:42;19.60;99.90
1686;DHT22;840;47.980;7.830;2022-09-24T11:19:08;19.70;99.90
1686;DHT22;840;47.980;7.830;2022-09-24T11:22:02;19.70;99.90
1686;DHT22;840;47.980;7.830;2022-09-24T11:24:44;19.60;99.90
1686;DHT22;840;47.980;7.830;2022-09-24T11:27:33;19.50;99.90
1686;DHT22;840;47.980;7.830;2022-09-24T11:30:08;19.50;99.90
1686;DHT22;840;47.980;7.830;2022-09-24T11:32:45;19.30;99.90
1686;DHT22;840;47.980;7.830;2022-09-24T11:35:23;19.30;99.90
1686;DHT22;840;47.980;7.830;2022-09-24T11:37:58;19.20;99.90
1686;DHT22;840;47.980;7.830;2022-09-24T11:40:41;19.20;99.90
1686;DHT22;840;47.980;7.830;2022-09-24T11:43:34;19.30;99.90
1686;DHT22;840;47.980;7.830;2022-09-24T11:46:14;19.20;99.90
1686;DHT22;840;47.980;7.830;2022-09-24T11:48:58;19.10;99.90
1686;DHT22;840;47.980;7.830;2022-09-24T11:51:42;19.00;99.90
1686;DHT22;840;47.980;7.830;2022-09-24T11:54:18;18.90;99.90
1686;DHT22;840;47.980;7.830;2022-09-24T11:56:49;18.90;99.90
1686;DHT22;840;47.980;7.830;2022-09-24T11:59:30;18.80;99.90
1686;DHT22;840;47.980;7.830;2022-09-24T12:02:02;18.80;99.90
1686;DHT22;840;47.980;7.830;2022-09-24T12:04:41;18.70;99.90
1686;DHT22;840;47.980;7.830;2022-09-24T12:07:14;18.70;99.90
1686;DHT22;840;47.980;7.830;2022-09-24T12:09:46;18.70;99.90
1686;DHT22;840;47.980;7.830;2022-09-24T12:12:17;18.70;99.90
1686;DHT22;840;47.980;7.830;2022-09-24T12:14:48;18.70;99.90
1686;DHT22;840;47.980;7.830;2022-09-24T12:17:20;18.70;99.90
1686;DHT22;840;47.980;7.830;2022-09-24T12:19:51;18.70;99.90
1686;DHT22;840;47.980;7.830;2022-09-24T12:22:21;18.80;99.90
1686;DHT22;840;47.980;7.830;2022-09-24T12:24:51;18.80;99.90
1686;DHT22;840;47.980;7.830;2022-09-24T12:27:21;18.80;99.90
1686;DHT22;840;47.980;7.830;2022-09-24T12:29:56;18.80;99.90
1686;DHT22;840;47.980;7.830;2022-09-24T12:32:46;18.80;99.90
1686;DHT22;840;47.980;7.830;2022-09-24T12:35:30;18.90;99.90
1686;DHT22;840;47.980;7.830;2022-09-24T12:38:03;19.10;99.90
1686;DHT22;840;47.980;7.830;2022-09-24T12:40:52;19.50;99.90
1686;DHT22;840;47.980;7.830;2022-09-24T12:43:28;19.60;99.90
1686;DHT22;840;47.980;7.830;2022-09-24T12:45:59;19.60;99.90
1686;DHT22;840;47.980;7.830;2022-09-24T12:48:28;19.60;99.90
1686;DHT22;840;47.980;7.830;2022-09-24T12:50:57;19.60;99.90
1686;DHT22;840;47.980;7.830;2022-09-24T12:53:31;19.60;99.90
1686;DHT22;840;47.980;7.830;2022-09-24T12:55:59;19.40;99.90
1686;DHT22;840;47.980;7.830;2022-09-24T12:58:29;19.30;99.90
1686;DHT22;840;47.980;7.830;2022-09-24T13:01:12;19.30;99.90
1686;DHT22;840;47.980;7.830;2022-09-24T13:03:41;19.40;99.90
1686;DHT22;840;47.980;7.830;2022-09-24T13:06:29;19.50;99.90
1686;DHT22;840;47.980;7.830;2022-09-24T13:08:58;19.40;99.90
1686;DHT22;840;47.980;7.830;2022-09-24T13:11:30;19.50;99.90
1686;DHT22;840;47.980;7.830;2022-09-24T13:14:04;19.60;99.90
1686;DHT22;840;47.980;7.830;2022-09-24T13:16:37;19.70;99.90
1686;DHT22;840;47.980;7.830;2022-09-24T13:19:07;19.70;99.90
1686;DHT22;840;47.980;7.830;2022-09-24T13:21:39;19.80;99.90
1686;DHT22;840;47.980;7.830;2022-09-24T13:24:11;19.70;99.90
1686;DHT22;840;47.980;7.830;2022-09-24T13:26:38;19.70;99.90
1686;DHT22;840;47.980;7.830;2022-09-24T13:29:22;19.70;99.90
1686;DHT22;840;47.980;7.830;2022-09-24T13:31:53;19.70;99.90
1686;DHT22;840;47.980;7.830;2022-09-24T13:34:24;19.70;99.90
1686;DHT22;840;47.980;7.830;2022-09-24T13:36:56;19.80;99.90
1686;DHT22;840;47.980;7.830;2022-09-24T13:39:28;19.80;99.90
1686;DHT22;840;47.980;7.830;2022-09-24T13:42:01;19.70;99.90
1686;DHT22;840;47.980;7.830;2022-09-24T13:44:32;19.70;99.90
1686;DHT22;840;47.980;7.830;2022-09-24T13:47:04;19.70;99.90
1686;DHT22;840;47.980;7.830;2022-09-24T13:49:36;19.60;99.90
1686;DHT22;840;47.980;7.830;2022-09-24T13:52:11;19.60;99.90
1686;DHT22;840;47.980;7.830;2022-09-24T13:54:47;19.70;99.90
1686;DHT22;840;47.980;7.830;2022-09-24T13:57:21;19.90;99.90
1686;DHT22;840;47.980;7.830;2022-09-24T13:59:49;20.00;99.90
1686;DHT22;840;47.980;7.830;2022-09-24T14:02:27;20.10;99.90
1686;DHT22;840;47.980;7.830;2022-09-24T14:04:58;20.20;99.90
1686;DHT22;840;47.980;7.830;2022-09-24T14:07:26;20.30;99.90
1686;DHT22;840;47.980;7.830;2022-09-24T14:10:03;20.20;99.90
1686;DHT22;840;47.980;7.830;2022-09-24T14:12:30;20.20;99.90
1686;DHT22;840;47.980;7.830;2022-09-24T14:14:57;20.30;99.90
1686;DHT22;840;47.980;7.830;2022-09-24T14:17:24;20.50;99.90
1686;DHT22;840;47.980;7.830;2022-09-24T14:19:54;20.80;99.90
1686;DHT22;840;47.980;7.830;2022-09-24T14:22:24;21.10;99.90
1686;DHT22;840;47.980;7.830;2022-09-24T14:24:54;21.40;99.90
1686;DHT22;840;47.980;7.830;2022-09-24T14:27:24;21.70;99.90
1686;DHT22;840;47.980;7.830;2022-09-24T14:29:54;22.00;99.90
1686;DHT22;840;47.980;7.830;2022-09-24T14:32:25;22.20;99.90
1686;DHT22;840;47.980;7.830;2022-09-24T14:34:54;22.20;99.90
1686;DHT22;840;47.980;7.830;2022-09-24T14:37:25;22.20;99.90
1686;DHT22;840;47.980;7.830;2022-09-24T14:39:58;22.30;99.90
1686;DHT22;840;47.980;7.830;2022-09-24T14:42:33;22.30;99.90
1686;DHT22;840;47.980;7.830;2022-09-24T14:45:05;22.20;99.90
1686;DHT22;840;47.980;7.830;2022-09-24T14:47:34;22.10;99.90
1686;DHT22;840;47.980;7.830;2022-09-24T14:50:02;21.90;99.90
1686;DHT22;840;47.980;7.830;2022-09-24T14:52:32;21.90;99.90
1686;DHT22;840;47.980;7.830;2022-09-24T14:55:12;21.90;99.90
1686;DHT22;840;47.980;7.830;2022-09-24T14:57:42;21.80;99.90
1686;DHT22;840;47.980;7.830;2022-09-24T15:00:23;21.70;99.90
1686;DHT22;840;47.980;7.830;2022-09-24T15:02:55;21.50;99.90
1686;DHT22;840;47.980;7.830;2022-09-24T15:05:24;21.10;99.90
1686;DHT22;840;47.980;7.830;2022-09-24T15:07:53;20.80;99.90
1686;DHT22;840;47.980;7.830;2022-09-24T15:10:34;20.50;99.90
1686;DHT22;840;47.980;7.830;2022-09-24T15:13:13;20.30;99.90
1686;DHT22;840;47.980;7.830;2022-09-24T15:15:40;20.10;99.90
1686;DHT22;840;47.980;7.830;2022-09-24T15:18:09;20.00;99.90
1686;DHT22;840;47.980;7.830;2022-09-24T15:20:36;19.80;99.90
1686;DHT22;840;47.980;7.830;2022-09-24T15:23:03;19.80;99.90
1686;DHT22;840;47.980;7.830;2022-09-24T15:25:30;19.70;99.90
1686;DHT22;840;47.980;7.830;2022-09-24T15:27:57;19.60;99.90
1686;DHT22;840;47.980;7.830;2022-09-24T15:30:25;19.60;99.90
1686;DHT22;840;47.980;7.830;2022-09-24T15:32:52;19.50;99.90
1686;DHT22;840;47.980;7.830;2022-09-24T15:35:19;19.40;99.90
1686;DHT22;840;47.980;7.830;2022-09-24T15:37:46;19.30;99.90
1686;DHT22;840;47.980;7.830;2022-09-24T15:40:19;19.30;99.90
1686;DHT22;840;47.980;7.830;2022-09-24T15:42:47;19.40;99.90
1686;DHT22;840;47.980;7.830;2022-09-24T15:45:18;19.40;99.90
1686;DHT22;840;47.980;7.830;2022-09-24T15:47:48;19.40;99.90
1686;DHT22;840;47.980;7.830;2022-09-24T15:50:16;19.50;99.90
1686;DHT22;840;47.980;7.830;2022-09-24T15:52:46;19.50;99.90
1686;DHT22;840;47.980;7.830;2022-09-24T15:55:16;19.50;99.90
1686;DHT22;840;47.980;7.830;2022-09-24T15:57:44;19.50;99.90
1686;DHT22;840;47.980;7.830;2022-09-24T16:00:15;19.50;99.90
1686;DHT22;840;47.980;7.830;2022-09-24T16:02:46;19.50;99.90
1686;DHT22;840;47.980;7.830;2022-09-24T16:05:16;19.50;99.90
1686;DHT22;840;47.980;7.830;2022-09-24T16:07:43;19.40;99.90
1686;DHT22;840;47.980;7.830;2022-09-24T16:10:11;19.40;99.90
1686;DHT22;840;47.980;7.830;2022-09-24T16:12:39;19.40;99.90
1686;DHT22;840;47.980;7.830;2022-09-24T16:15:07;19.40;99.90
1686;DHT22;840;47.980;7.830;2022-09-24T16:17:37;19.30;99.90
1686;DHT22;840;47.980;7.830;2022-09-24T16:20:04;19.30;99.90
1686;DHT22;840;47.980;7.830;2022-09-24T16:22:33;19.20;99.90
1686;DHT22;840;47.980;7.830;2022-09-24T16:25:00;19.20;99.90
1686;DHT22;840;47.980;7.830;2022-09-24T16:27:27;19.20;99.90
1686;DHT22;840;47.980;7.830;2022-09-24T16:29:54;19.10;99.90
1686;DHT22;840;47.980;7.830;2022-09-24T16:32:20;19.10;99.90
1686;DHT22;840;47.980;7.830;2022-09-24T16:34:47;19.10;99.90
1686;DHT22;840;47.980;7.830;2022-09-24T16:37:14;19.20;99.90
1686;DHT22;840;47.980;7.830;2022-09-24T16:39:44;19.20;99.90
1686;DHT22;840;47.980;7.830;2022-09-24T16:42:10;19.20;99.90
1686;DHT22;840;47.980;7.830;2022-09-24T16:44:37;19.20;99.90